sensor_id;sensor_type;location;lat;lon;timestamp;noise_LAeq;noise_LA_min;noise_LA_max;noise_LA01;noise_LA95
40103;Laerm;25814;48.550;9.108;2022-12-18T00:01:18;35.56;27.73;45.40;;
40103;Laerm;25814;48.550;9.108;2022-12-18T00:03:45;32.91;27.95;45.40;;
40103;Laerm;25814;48.550;9.108;2022-12-18T00:06:12;36.15;28.32;50.77;;
40103;Laerm;25814;48.550;9.108;2022-12-18T00:08:40;36.89;29.81;49.12;;
40103;Laerm;25814;48.550;9.108;2022-12-18T00:11:10;36.88;27.91;48.71;;
40103;Laerm;25814;48.550;9.108;2022-12-18T00:13:37;34.52;27.61;47.67;;
40103;Laerm;25814;48.550;9.108;2022-12-18T00:16:07;36.52;28.13;48.77;;
40103;Laerm;25814;48.550;9.108;2022-12-18T00:18:34;35.70;28.09;49.10;;
40103;Laerm;25814;48.550;9.108;2022-12-18T00:21:03;36.31;28.10;48.29;;
40103;Laerm;25814;48.550;9.108;2022-12-18T00:23:30;37.17;29.14;49.22;;
40103;Laerm;25814;48.550;9.108;2022-12-18T00:26:02;37.26;30.21;52.84;;
40103;Laerm;25814;48.550;9.108;2022-12-18T00:28:28;35.75;29.32;48.69;;
40103;Laerm;25814;48.550;9.108;2022-12-18T00:31:09;37.77;29.02;48.48;;
40103;Laerm;25814;48.550;9.108;2022-12-18T00:33:36;35.49;28.23;45.31;;
40103;Laerm;25814;48.550;9.108;2022-12-18T00:36:04;36.42;28.55;47.80;;
40103;Laerm;25814;48.550;9.108;2022-12-18T00:38:30;35.80;28.12;48.50;;
40103;Laerm;25814;48.550;9.108;2022-12-18T00:40:56;36.42;28.21;47.81;;
40103;Laerm;25814;48.550;9.108;2022-12-18T00:43:22;36.76;29.99;47.56;;
40103;Laerm;25814;48.550;9.108;2022-12-18T00:45:47;36.56;28.00;48.32;;
40103;Laerm;25814;48.550;9.108;2022-12-18T00:48:13;35.50;28.31;45.69;;
40103;Laerm;25814;48.550;9.108;2022-12-18T00:50:39;36.56;28.29;50.03;;
40103;Laerm;25814;48.550;9.108;2022-12-18T00:53:05;36.39;28.10;51.39;;
40103;Laerm;25814;48.550;9.108;2022-12-18T00:55:31;36.42;27.94;47.36;;
40103;Laerm;25814;48.550;9.108;2022-12-18T00:57:57;36.97;28.14;46.91;;
40103;Laerm;25814;48.550;9.108;2022-12-18T01:00:23;37.13;29.16;48.60;;
40103;Laerm;25814;48.550;9.108;2022-12-18T01:02:49;37.13;28.48;49.69;;
40103;Laerm;25814;48.550;9.108;2022-12-18T01:05:15;36.21;27.91;48.11;;
40103;Laerm;25814;48.550;9.108;2022-12-18T01:07:41;36.51;28.09;50.16;;
40103;Laerm;25814;48.550;9.108;2022-12-18T01:10:10;36.26;28.34;48.17;;
40103;Laerm;25814;48.550;9.108;2022-12-18T01:12:37;36.52;28.51;48.53;;
40103;Laerm;25814;48.550;9.108;2022-12-18T01:15:05;36.94;28.24;46.69;;
40103;Laerm;25814;48.550;9.108;2022-12-18T01:17:31;37.25;29.56;49.56;;
40103;Laerm;25814;48.550;9.108;2022-12-18T01:19:57;37.06;28.44;47.41;;
40103;Laerm;25814;48.550;9.108;2022-12-18T01:22:22;38.42;28.49;64.77;;
40103;Laerm;25814;48.550;9.108;2022-12-18T01:24:48;36.60;28.18;47.79;;
40103;Laerm;25814;48.550;9.108;2022-12-18T01:27:14;36.42;27.94;50.04;;
40103;Laerm;25814;48.550;9.108;2022-12-18T01:29:40;36.52;28.32;48.56;;
40103;Laerm;25814;48.550;9.108;2022-12-18T01:32:05;37.42;29.69;50.54;;
40103;Laerm;25814;48.550;9.108;2022-12-18T01:34:31;36.95;28.17;48.65;;
40103;Laerm;25814;48.550;9.108;2022-12-18T01:36:57;36.72;28.02;48.34;;
40103;Laerm;25814;48.550;9.108;2022-12-18T01:39:23;36.53;28.08;49.09;;
40103;Laerm;25814;48.550;9.108;2022-12-18T01:41:49;37.29;27.81;48.21;;
40103;Laerm;25814;48.550;9.108;2022-12-18T01:45:04;36.09;27.80;47.22;;
40103;Laerm;25814;48.550;9.108;2022-12-18T01:47:52;36.39;27.92;50.47;;
40103;Laerm;25814;48.550;9.108;2022-12-18T01:50:38;37.13;29.64;49.58;;
40103;Laerm;25814;48.550;9.108;2022-12-18T01:53:11;36.29;27.94;50.58;;
40103;Laerm;25814;48.550;9.108;2022-12-18T01:55:48;36.37;28.12;51.55;;
40103;Laerm;25814;48.550;9.108;2022-12-18T01:58:16;36.82;27.78;47.08;;
40103;Laerm;25814;48.550;9.108;2022-12-18T02:00:42;36.81;27.92;49.59;;
40103;Laerm;25814;48.550;9.108;2022-12-18T02:03:08;36.61;27.96;48.13;;
40103;Laerm;25814;48.550;9.108;2022-12-18T02:08:23;37.13;28.40;49.01;;
40103;Laerm;25814;48.550;9.108;2022-12-18T02:11:05;36.73;27.93;47.33;;
40103;Laerm;25814;48.550;9.108;2022-12-18T02:17:20;36.17;28.00;49.20;;
40103;Laerm;25814;48.550;9.108;2022-12-18T02:20:02;37.17;28.22;46.75;;
40103;Laerm;25814;48.550;9.108;2022-12-18T02:23:10;37.20;28.29;50.54;;
40103;Laerm;25814;48.550;9.108;2022-12-18T02:28:47;37.59;28.10;49.43;;
40103;Laerm;25814;48.550;9.108;2022-12-18T02:31:22;37.34;27.75;48.35;;
40103;Laerm;25814;48.550;9.108;2022-12-18T02:33:53;36.45;27.96;48.18;;
40103;Laerm;25814;48.550;9.108;2022-12-18T02:36:24;36.96;28.17;48.67;;
40103;Laerm;25814;48.550;9.108;2022-12-18T02:38:53;36.24;29.54;48.52;;
40103;Laerm;25814;48.550;9.108;2022-12-18T02:41:21;36.93;28.24;48.41;;
40103;Laerm;25814;48.550;9.108;2022-12-18T02:43:49;36.18;27.71;48.20;;
40103;Laerm;25814;48.550;9.108;2022-12-18T02:49:21;35.52;28.03;48.49;;
40103;Laerm;25814;48.550;9.108;2022-12-18T02:58:26;36.93;29.02;47.94;;
40103;Laerm;25814;48.550;9.108;2022-12-18T03:04:10;35.39;27.98;47.56;;
40103;Laerm;25814;48.550;9.108;2022-12-18T03:06:43;35.24;28.01;45.49;;
40103;Laerm;25814;48.550;9.108;2022-12-18T03:09:29;35.29;29.70;43.28;;
40103;Laerm;25814;48.550;9.108;2022-12-18T03:12:09;34.95;28.58;43.13;;
40103;Laerm;25814;48.550;9.108;2022-12-18T03:17:33;33.61;28.06;42.25;;
40103;Laerm;25814;48.550;9.108;2022-12-18T03:20:10;33.55;28.26;42.45;;
40103;Laerm;25814;48.550;9.108;2022-12-18T03:22:41;35.03;28.53;47.97;;
40103;Laerm;25814;48.550;9.108;2022-12-18T03:25:12;34.96;28.72;43.19;;
40103;Laerm;25814;48.550;9.108;2022-12-18T03:27:47;35.36;30.16;43.53;;
40103;Laerm;25814;48.550;9.108;2022-12-18T03:30:16;33.61;27.85;42.74;;
40103;Laerm;25814;48.550;9.108;2022-12-18T03:32:52;32.53;27.82;41.65;;
40103;Laerm;25814;48.550;9.108;2022-12-18T03:35:37;32.60;27.99;42.14;;
40103;Laerm;25814;48.550;9.108;2022-12-18T03:38:05;35.25;29.52;43.88;;
40103;Laerm;25814;48.550;9.108;2022-12-18T03:43:35;32.83;27.98;41.95;;
40103;Laerm;25814;48.550;9.108;2022-12-18T03:46:15;33.44;27.89;42.55;;
40103;Laerm;25814;48.550;9.108;2022-12-18T03:48:48;31.19;27.73;41.35;;
40103;Laerm;25814;48.550;9.108;2022-12-18T03:51:40;34.50;28.44;41.67;;
40103;Laerm;25814;48.550;9.108;2022-12-18T03:54:11;33.08;28.77;40.96;;
40103;Laerm;25814;48.550;9.108;2022-12-18T03:56:45;33.80;28.31;42.25;;
40103;Laerm;25814;48.550;9.108;2022-12-18T03:59:15;32.52;27.85;41.74;;
40103;Laerm;25814;48.550;9.108;2022-12-18T04:01:49;33.36;28.03;42.45;;
40103;Laerm;25814;48.550;9.108;2022-12-18T04:04:18;33.66;28.27;43.14;;
40103;Laerm;25814;48.550;9.108;2022-12-18T04:06:47;35.15;29.89;42.63;;
40103;Laerm;25814;48.550;9.108;2022-12-18T04:09:15;33.89;28.65;42.78;;
40103;Laerm;25814;48.550;9.108;2022-12-18T04:11:42;33.37;28.24;45.21;;
40103;Laerm;25814;48.550;9.108;2022-12-18T04:14:10;32.90;27.89;41.13;;
40103;Laerm;25814;48.550;9.108;2022-12-18T04:16:35;32.92;28.72;41.22;;
40103;Laerm;25814;48.550;9.108;2022-12-18T04:19:01;34.03;29.16;41.52;;
40103;Laerm;25814;48.550;9.108;2022-12-18T04:21:27;34.45;30.19;41.91;;
40103;Laerm;25814;48.550;9.108;2022-12-18T04:23:53;33.51;28.91;41.20;;
40103;Laerm;25814;48.550;9.108;2022-12-18T04:26:18;33.48;28.82;41.61;;
40103;Laerm;25814;48.550;9.108;2022-12-18T04:28:44;33.08;28.66;41.62;;
40103;Laerm;25814;48.550;9.108;2022-12-18T04:31:10;33.29;28.84;41.84;;
40103;Laerm;25814;48.550;9.108;2022-12-18T04:33:36;34.73;29.89;42.66;;
40103;Laerm;25814;48.550;9.108;2022-12-18T04:36:02;35.37;30.20;44.31;;
40103;Laerm;25814;48.550;9.108;2022-12-18T04:38:28;34.07;28.73;42.97;;
40103;Laerm;25814;48.550;9.108;2022-12-18T04:40:54;33.58;28.82;42.91;;
40103;Laerm;25814;48.550;9.108;2022-12-18T04:43:20;34.11;28.79;43.33;;
40103;Laerm;25814;48.550;9.108;2022-12-18T04:45:45;34.90;28.51;56.41;;
40103;Laerm;25814;48.550;9.108;2022-12-18T04:48:11;35.12;30.07;43.59;;
40103;Laerm;25814;48.550;9.108;2022-12-18T04:50:37;35.27;30.49;43.60;;
40103;Laerm;25814;48.550;9.108;2022-12-18T04:53:03;34.52;28.52;43.22;;
40103;Laerm;25814;48.550;9.108;2022-12-18T04:55:29;34.21;28.39;43.58;;
40103;Laerm;25814;48.550;9.108;2022-12-18T04:57:55;33.90;28.33;42.70;;
40103;Laerm;25814;48.550;9.108;2022-12-18T05:00:21;34.92;30.02;43.19;;
40103;Laerm;25814;48.550;9.108;2022-12-18T05:02:47;34.41;28.27;43.64;;
40103;Laerm;25814;48.550;9.108;2022-12-18T05:05:13;34.13;28.13;43.69;;
40103;Laerm;25814;48.550;9.108;2022-12-18T05:07:39;35.55;28.53;44.16;;
40103;Laerm;25814;48.550;9.108;2022-12-18T05:10:05;34.92;30.33;43.41;;
40103;Laerm;25814;48.550;9.108;2022-12-18T05:12:31;34.54;28.21;49.92;;
40103;Laerm;25814;48.550;9.108;2022-12-18T05:14:57;34.57;28.02;43.23;;
40103;Laerm;25814;48.550;9.108;2022-12-18T05:17:23;34.70;28.61;43.05;;
40103;Laerm;25814;48.550;9.108;2022-12-18T05:19:49;35.39;29.82;44.09;;
40103;Laerm;25814;48.550;9.108;2022-12-18T05:22:14;34.60;28.55;42.76;;
40103;Laerm;25814;48.550;9.108;2022-12-18T05:24:40;34.27;28.39;43.53;;
40103;Laerm;25814;48.550;9.108;2022-12-18T05:27:06;34.81;28.22;43.47;;
40103;Laerm;25814;48.550;9.108;2022-12-18T05:29:32;35.68;30.09;45.83;;
40103;Laerm;25814;48.550;9.108;2022-12-18T05:31:57;35.05;28.41;44.20;;
40103;Laerm;25814;48.550;9.108;2022-12-18T05:34:23;35.39;28.20;45.38;;
40103;Laerm;25814;48.550;9.108;2022-12-18T05:36:49;35.05;28.17;43.30;;
40103;Laerm;25814;48.550;9.108;2022-12-18T05:39:15;35.54;30.13;43.26;;
40103;Laerm;25814;48.550;9.108;2022-12-18T05:41:40;34.76;28.36;43.36;;
40103;Laerm;25814;48.550;9.108;2022-12-18T05:44:06;34.62;28.36;43.89;;
40103;Laerm;25814;48.550;9.108;2022-12-18T05:46:32;35.64;29.73;44.04;;
40103;Laerm;25814;48.550;9.108;2022-12-18T05:49:01;35.52;29.25;44.31;;
40103;Laerm;25814;48.550;9.108;2022-12-18T05:51:27;34.40;28.32;48.69;;
40103;Laerm;25814;48.550;9.108;2022-12-18T05:53:52;34.96;28.38;43.89;;
40103;Laerm;25814;48.550;9.108;2022-12-18T05:56:21;36.04;30.23;44.33;;
40103;Laerm;25814;48.550;9.108;2022-12-18T05:58:47;36.11;28.41;44.60;;
40103;Laerm;25814;48.550;9.108;2022-12-18T06:01:17;36.69;28.31;48.22;;
40103;Laerm;25814;48.550;9.108;2022-12-18T06:03:43;36.19;28.61;45.89;;
40103;Laerm;25814;48.550;9.108;2022-12-18T06:06:20;36.10;29.92;45.96;;
40103;Laerm;25814;48.550;9.108;2022-12-18T06:08:48;34.92;28.71;42.96;;
40103;Laerm;25814;48.550;9.108;2022-12-18T06:11:20;34.22;28.90;42.87;;
40103;Laerm;25814;48.550;9.108;2022-12-18T06:13:50;34.81;28.82;43.56;;
40103;Laerm;25814;48.550;9.108;2022-12-18T06:16:17;35.79;30.36;44.42;;
40103;Laerm;25814;48.550;9.108;2022-12-18T06:18:42;35.28;28.96;45.27;;
40103;Laerm;25814;48.550;9.108;2022-12-18T06:21:08;34.89;29.05;44.26;;
40103;Laerm;25814;48.550;9.108;2022-12-18T06:23:34;35.61;30.40;47.61;;
40103;Laerm;25814;48.550;9.108;2022-12-18T06:26:05;41.32;29.24;67.31;;
40103;Laerm;25814;48.550;9.108;2022-12-18T06:28:31;35.03;28.96;45.74;;
40103;Laerm;25814;48.550;9.108;2022-12-18T06:30:56;35.08;28.99;44.13;;
40103;Laerm;25814;48.550;9.108;2022-12-18T06:33:27;39.17;30.88;59.95;;
40103;Laerm;25814;48.550;9.108;2022-12-18T06:35:54;35.83;29.01;46.03;;
40103;Laerm;25814;48.550;9.108;2022-12-18T06:38:20;38.28;29.05;59.25;;
40103;Laerm;25814;48.550;9.108;2022-12-18T06:40:46;35.58;29.17;44.17;;
40103;Laerm;25814;48.550;9.108;2022-12-18T06:43:11;36.76;30.33;54.93;;
40103;Laerm;25814;48.550;9.108;2022-12-18T06:45:37;42.88;29.05;69.19;;
40103;Laerm;25814;48.550;9.108;2022-12-18T06:48:03;35.54;29.12;47.47;;
40103;Laerm;25814;48.550;9.108;2022-12-18T06:50:29;35.88;29.04;44.47;;
40103;Laerm;25814;48.550;9.108;2022-12-18T06:52:55;37.43;30.88;46.71;;
40103;Laerm;25814;48.550;9.108;2022-12-18T06:55:20;35.88;29.00;44.58;;
40103;Laerm;25814;48.550;9.108;2022-12-18T06:57:46;35.54;29.32;47.82;;
40103;Laerm;25814;48.550;9.108;2022-12-18T07:00:12;38.04;29.76;56.36;;
40103;Laerm;25814;48.550;9.108;2022-12-18T07:02:39;37.09;30.75;52.45;;
40103;Laerm;25814;48.550;9.108;2022-12-18T07:05:06;37.70;29.55;60.28;;
40103;Laerm;25814;48.550;9.108;2022-12-18T07:07:34;36.96;29.34;54.60;;
40103;Laerm;25814;48.550;9.108;2022-12-18T07:10:00;54.02;30.93;70.46;;
40103;Laerm;25814;48.550;9.108;2022-12-18T07:12:29;36.95;29.18;51.04;;
40103;Laerm;25814;48.550;9.108;2022-12-18T07:14:54;36.32;29.48;56.52;;
40103;Laerm;25814;48.550;9.108;2022-12-18T07:17:20;35.76;29.67;44.72;;
40103;Laerm;25814;48.550;9.108;2022-12-18T07:19:46;37.05;31.21;48.91;;
40103;Laerm;25814;48.550;9.108;2022-12-18T07:22:11;36.50;29.39;47.02;;
40103;Laerm;25814;48.550;9.108;2022-12-18T07:24:37;36.95;29.90;45.42;;
40103;Laerm;25814;48.550;9.108;2022-12-18T07:27:03;36.64;29.72;44.57;;
40103;Laerm;25814;48.550;9.108;2022-12-18T07:29:29;36.79;31.21;54.07;;
40103;Laerm;25814;48.550;9.108;2022-12-18T07:31:54;39.07;29.68;71.66;;
40103;Laerm;25814;48.550;9.108;2022-12-18T07:34:20;35.71;30.02;46.63;;
40103;Laerm;25814;48.550;9.108;2022-12-18T07:36:46;36.97;29.89;59.79;;
40103;Laerm;25814;48.550;9.108;2022-12-18T07:39:12;38.98;29.61;62.72;;
40103;Laerm;25814;48.550;9.108;2022-12-18T07:41:37;38.00;29.33;62.03;;
40103;Laerm;25814;48.550;9.108;2022-12-18T07:44:04;36.10;29.81;54.04;;
40103;Laerm;25814;48.550;9.108;2022-12-18T07:46:29;37.04;30.48;47.47;;
40103;Laerm;25814;48.550;9.108;2022-12-18T07:48:55;37.76;29.95;57.93;;
40103;Laerm;25814;48.550;9.108;2022-12-18T07:51:21;35.98;29.97;50.33;;
40103;Laerm;25814;48.550;9.108;2022-12-18T07:53:47;36.47;30.00;49.58;;
40103;Laerm;25814;48.550;9.108;2022-12-18T07:56:13;36.32;30.95;48.40;;
40103;Laerm;25814;48.550;9.108;2022-12-18T07:58:39;36.32;30.03;48.20;;
40103;Laerm;25814;48.550;9.108;2022-12-18T08:01:09;36.83;29.67;61.62;;
40103;Laerm;25814;48.550;9.108;2022-12-18T08:03:36;37.16;30.07;58.10;;
40103;Laerm;25814;48.550;9.108;2022-12-18T08:06:09;36.64;31.09;47.08;;
40103;Laerm;25814;48.550;9.108;2022-12-18T08:08:35;36.64;31.27;46.36;;
40103;Laerm;25814;48.550;9.108;2022-12-18T08:11:01;35.53;30.54;43.20;;
40103;Laerm;25814;48.550;9.108;2022-12-18T08:13:28;37.03;30.79;54.05;;
40103;Laerm;25814;48.550;9.108;2022-12-18T08:16:07;36.57;32.04;44.14;;
40103;Laerm;25814;48.550;9.108;2022-12-18T08:18:34;36.36;31.58;43.94;;
40103;Laerm;25814;48.550;9.108;2022-12-18T08:21:13;35.71;30.08;51.68;;
40103;Laerm;25814;48.550;9.108;2022-12-18T08:23:39;35.47;29.79;52.27;;
40103;Laerm;25814;48.550;9.108;2022-12-18T08:26:05;37.96;31.38;54.91;;
40103;Laerm;25814;48.550;9.108;2022-12-18T08:28:32;37.26;31.01;52.88;;
40103;Laerm;25814;48.550;9.108;2022-12-18T08:30:58;34.68;29.88;43.85;;
40103;Laerm;25814;48.550;9.108;2022-12-18T08:33:23;34.59;29.85;43.89;;
40103;Laerm;25814;48.550;9.108;2022-12-18T08:35:49;37.22;31.29;57.81;;
40103;Laerm;25814;48.550;9.108;2022-12-18T08:38:15;39.48;30.89;56.64;;
40103;Laerm;25814;48.550;9.108;2022-12-18T08:40:41;35.52;30.12;51.40;;
40103;Laerm;25814;48.550;9.108;2022-12-18T08:43:09;35.26;30.37;50.53;;
40103;Laerm;25814;48.550;9.108;2022-12-18T08:45:55;38.48;31.69;58.80;;
40103;Laerm;25814;48.550;9.108;2022-12-18T08:48:21;36.45;31.85;51.46;;
40103;Laerm;25814;48.550;9.108;2022-12-18T08:50:59;34.69;29.89;50.66;;
40103;Laerm;25814;48.550;9.108;2022-12-18T08:53:26;37.68;30.22;53.02;;
40103;Laerm;25814;48.550;9.108;2022-12-18T08:55:53;35.67;31.45;55.79;;
40103;Laerm;25814;48.550;9.108;2022-12-18T08:58:19;36.18;31.16;49.38;;
40103;Laerm;25814;48.550;9.108;2022-12-18T09:00:45;35.71;30.54;47.87;;
40103;Laerm;25814;48.550;9.108;2022-12-18T09:03:13;37.85;29.60;48.11;;
40103;Laerm;25814;48.550;9.108;2022-12-18T09:05:39;38.12;31.02;61.34;;
40103;Laerm;25814;48.550;9.108;2022-12-18T09:08:05;37.03;32.09;48.38;;
40103;Laerm;25814;48.550;9.108;2022-12-18T09:10:31;34.16;30.15;43.37;;
40103;Laerm;25814;48.550;9.108;2022-12-18T09:12:57;34.38;30.02;47.44;;
40103;Laerm;25814;48.550;9.108;2022-12-18T09:15:23;36.43;31.29;49.75;;
40103;Laerm;25814;48.550;9.108;2022-12-18T09:17:49;36.29;30.50;55.33;;
40103;Laerm;25814;48.550;9.108;2022-12-18T09:20:19;39.77;29.86;71.82;;
40103;Laerm;25814;48.550;9.108;2022-12-18T09:22:44;34.21;29.74;48.52;;
40103;Laerm;25814;48.550;9.108;2022-12-18T09:25:10;44.54;31.31;57.17;;
40103;Laerm;25814;48.550;9.108;2022-12-18T09:27:37;34.05;29.24;42.68;;
40103;Laerm;25814;48.550;9.108;2022-12-18T09:30:06;34.74;29.95;55.85;;
40103;Laerm;25814;48.550;9.108;2022-12-18T09:32:32;34.93;30.45;45.33;;
40103;Laerm;25814;48.550;9.108;2022-12-18T09:34:58;43.35;31.70;56.50;;
40103;Laerm;25814;48.550;9.108;2022-12-18T09:37:24;38.17;30.23;50.68;;
40103;Laerm;25814;48.550;9.108;2022-12-18T09:39:50;34.14;29.60;51.50;;
40103;Laerm;25814;48.550;9.108;2022-12-18T09:42:21;35.00;30.41;49.80;;
40103;Laerm;25814;48.550;9.108;2022-12-18T09:44:53;35.04;29.64;51.17;;
40103;Laerm;25814;48.550;9.108;2022-12-18T09:47:27;33.60;29.77;54.61;;
40103;Laerm;25814;48.550;9.108;2022-12-18T09:50:05;40.21;29.46;67.19;;
40103;Laerm;25814;48.550;9.108;2022-12-18T09:52:47;34.61;31.43;43.48;;
40103;Laerm;25814;48.550;9.108;2022-12-18T09:57:56;39.27;30.24;62.01;;
40103;Laerm;25814;48.550;9.108;2022-12-18T10:00:25;34.65;30.94;40.18;;
40103;Laerm;25814;48.550;9.108;2022-12-18T10:03:11;34.41;30.58;43.32;;
40103;Laerm;25814;48.550;9.108;2022-12-18T10:06:06;40.80;29.77;66.67;;
40103;Laerm;25814;48.550;9.108;2022-12-18T10:08:56;34.35;29.45;53.33;;
40103;Laerm;25814;48.550;9.108;2022-12-18T10:14:40;34.93;29.59;46.63;;
40103;Laerm;25814;48.550;9.108;2022-12-18T10:19:56;35.32;29.64;57.95;;
40103;Laerm;25814;48.550;9.108;2022-12-18T10:28:16;35.87;29.46;61.77;;
40103;Laerm;25814;48.550;9.108;2022-12-18T10:30:44;33.66;31.05;44.68;;
40103;Laerm;25814;48.550;9.108;2022-12-18T10:33:23;38.02;29.13;56.46;;
40103;Laerm;25814;48.550;9.108;2022-12-18T10:35:52;31.35;29.33;38.74;;
40103;Laerm;25814;48.550;9.108;2022-12-18T10:40:57;33.60;30.09;47.86;;
40103;Laerm;25814;48.550;9.108;2022-12-18T10:43:32;31.58;29.23;53.92;;
40103;Laerm;25814;48.550;9.108;2022-12-18T10:51:32;33.29;29.59;51.88;;
40103;Laerm;25814;48.550;9.108;2022-12-18T10:54:13;32.03;29.66;45.03;;
40103;Laerm;25814;48.550;9.108;2022-12-18T10:56:41;33.77;30.08;46.50;;
40103;Laerm;25814;48.550;9.108;2022-12-18T10:59:11;33.54;30.26;38.78;;
40103;Laerm;25814;48.550;9.108;2022-12-18T11:01:56;36.39;29.52;47.37;;
40103;Laerm;25814;48.550;9.108;2022-12-18T11:04:30;34.59;29.46;55.01;;
40103;Laerm;25814;48.550;9.108;2022-12-18T11:07:03;33.58;31.06;43.06;;
40103;Laerm;25814;48.550;9.108;2022-12-18T11:09:34;34.59;29.50;46.45;;
40103;Laerm;25814;48.550;9.108;2022-12-18T11:12:22;34.57;29.07;48.66;;
40103;Laerm;25814;48.550;9.108;2022-12-18T11:14:52;34.36;30.97;43.09;;
40103;Laerm;25814;48.550;9.108;2022-12-18T11:17:41;38.10;31.32;50.37;;
40103;Laerm;25814;48.550;9.108;2022-12-18T11:20:34;37.95;33.95;52.34;;
40103;Laerm;25814;48.550;9.108;2022-12-18T11:23:11;37.56;34.40;47.63;;
40103;Laerm;25814;48.550;9.108;2022-12-18T11:25:38;39.61;34.92;55.03;;
40103;Laerm;25814;48.550;9.108;2022-12-18T11:28:50;39.77;35.43;58.96;;
40103;Laerm;25814;48.550;9.108;2022-12-18T11:31:28;37.86;31.19;46.17;;
40103;Laerm;25814;48.550;9.108;2022-12-18T11:37:03;41.13;29.69;54.64;;
40103;Laerm;25814;48.550;9.108;2022-12-18T11:39:45;37.66;29.00;63.67;;
40103;Laerm;25814;48.550;9.108;2022-12-18T11:44:58;34.62;31.28;47.74;;
40103;Laerm;25814;48.550;9.108;2022-12-18T11:50:59;35.29;30.14;55.18;;
40103;Laerm;25814;48.550;9.108;2022-12-18T11:53:27;34.13;30.89;47.40;;
40103;Laerm;25814;48.550;9.108;2022-12-18T11:58:50;33.08;29.73;43.69;;
40103;Laerm;25814;48.550;9.108;2022-12-18T12:07:50;37.07;29.52;61.51;;
40103;Laerm;25814;48.550;9.108;2022-12-18T12:22:43;35.33;30.92;60.35;;
40103;Laerm;25814;48.550;9.108;2022-12-18T12:25:27;37.84;29.32;51.94;;
40103;Laerm;25814;48.550;9.108;2022-12-18T12:28:45;33.06;29.48;56.19;;
40103;Laerm;25814;48.550;9.108;2022-12-18T12:38:09;32.25;29.13;55.69;;
40103;Laerm;25814;48.550;9.108;2022-12-18T12:40:56;36.60;28.83;55.04;;
40103;Laerm;25814;48.550;9.108;2022-12-18T12:43:41;33.10;29.53;48.45;;
40103;Laerm;25814;48.550;9.108;2022-12-18T12:46:18;31.39;29.34;41.01;;
40103;Laerm;25814;48.550;9.108;2022-12-18T12:48:56;31.86;29.59;45.20;;
40103;Laerm;25814;48.550;9.108;2022-12-18T12:51:36;33.75;30.24;54.38;;
40103;Laerm;25814;48.550;9.108;2022-12-18T12:54:09;35.05;29.60;57.38;;
40103;Laerm;25814;48.550;9.108;2022-12-18T13:00:06;32.53;29.43;44.79;;
40103;Laerm;25814;48.550;9.108;2022-12-18T13:03:08;34.16;31.14;46.96;;
40103;Laerm;25814;48.550;9.108;2022-12-18T13:05:53;36.94;30.05;63.79;;
40103;Laerm;25814;48.550;9.108;2022-12-18T13:08:30;32.84;29.90;43.42;;
40103;Laerm;25814;48.550;9.108;2022-12-18T13:10:58;34.07;29.80;48.26;;
40103;Laerm;25814;48.550;9.108;2022-12-18T13:13:54;36.40;30.17;54.58;;
40103;Laerm;25814;48.550;9.108;2022-12-18T13:16:25;32.74;29.43;45.42;;
40103;Laerm;25814;48.550;9.108;2022-12-18T13:18:56;46.36;29.82;67.88;;
40103;Laerm;25814;48.550;9.108;2022-12-18T13:21:31;40.14;30.64;62.99;;
40103;Laerm;25814;48.550;9.108;2022-12-18T13:24:25;33.43;29.83;49.48;;
40103;Laerm;25814;48.550;9.108;2022-12-18T13:26:51;31.75;29.51;43.06;;
40103;Laerm;25814;48.550;9.108;2022-12-18T13:29:43;32.60;29.40;45.38;;
40103;Laerm;25814;48.550;9.108;2022-12-18T13:32:25;53.37;30.73;84.22;;
40103;Laerm;25814;48.550;9.108;2022-12-18T13:37:59;32.68;29.41;56.91;;
40103;Laerm;25814;48.550;9.108;2022-12-18T13:46:16;34.22;29.53;47.37;;
40103;Laerm;25814;48.550;9.108;2022-12-18T13:49:02;34.62;29.73;53.34;;
40103;Laerm;25814;48.550;9.108;2022-12-18T13:51:33;38.22;30.62;68.20;;
40103;Laerm;25814;48.550;9.108;2022-12-18T13:54:35;33.53;30.14;44.50;;
40103;Laerm;25814;48.550;9.108;2022-12-18T13:57:03;31.84;29.58;43.93;;
40103;Laerm;25814;48.550;9.108;2022-12-18T13:59:35;32.53;29.37;47.50;;
40103;Laerm;25814;48.550;9.108;2022-12-18T14:02:15;33.40;30.82;42.44;;
40103;Laerm;25814;48.550;9.108;2022-12-18T14:04:44;33.03;29.53;46.20;;
40103;Laerm;25814;48.550;9.108;2022-12-18T14:07:26;31.99;29.54;44.58;;
40103;Laerm;25814;48.550;9.108;2022-12-18T14:09:59;32.99;29.58;42.70;;
40103;Laerm;25814;48.550;9.108;2022-12-18T14:12:32;41.41;31.42;63.16;;
40103;Laerm;25814;48.550;9.108;2022-12-18T14:18:23;32.79;29.70;47.87;;
40103;Laerm;25814;48.550;9.108;2022-12-18T14:20:54;37.82;30.54;56.67;;
40103;Laerm;25814;48.550;9.108;2022-12-18T14:23:38;38.07;30.06;53.29;;
40103;Laerm;25814;48.550;9.108;2022-12-18T14:26:29;34.29;30.40;51.08;;
40103;Laerm;25814;48.550;9.108;2022-12-18T14:28:58;35.28;30.75;51.27;;
40103;Laerm;25814;48.550;9.108;2022-12-18T14:31:29;36.14;31.75;51.68;;
40103;Laerm;25814;48.550;9.108;2022-12-18T14:33:55;35.71;31.25;43.44;;
40103;Laerm;25814;48.550;9.108;2022-12-18T14:36:25;39.66;35.38;54.79;;
40103;Laerm;25814;48.550;9.108;2022-12-18T14:38:56;42.80;34.40;65.42;;
40103;Laerm;25814;48.550;9.108;2022-12-18T14:41:23;45.13;35.19;65.41;;
40103;Laerm;25814;48.550;9.108;2022-12-18T14:43:52;39.74;35.05;52.06;;
40103;Laerm;25814;48.550;9.108;2022-12-18T14:46:41;46.96;34.10;60.51;;
40103;Laerm;25814;48.550;9.108;2022-12-18T14:49:30;37.84;32.20;57.46;;
40103;Laerm;25814;48.550;9.108;2022-12-18T14:52:06;37.52;33.03;55.95;;
40103;Laerm;25814;48.550;9.108;2022-12-18T14:54:39;36.38;31.74;52.03;;
40103;Laerm;25814;48.550;9.108;2022-12-18T14:57:21;37.38;32.22;55.68;;
40103;Laerm;25814;48.550;9.108;2022-12-18T14:59:49;35.96;32.53;45.79;;
40103;Laerm;25814;48.550;9.108;2022-12-18T15:02:19;36.32;33.21;46.86;;
40103;Laerm;25814;48.550;9.108;2022-12-18T15:04:46;36.65;31.87;54.20;;
40103;Laerm;25814;48.550;9.108;2022-12-18T15:07:19;39.75;30.38;60.18;;
40103;Laerm;25814;48.550;9.108;2022-12-18T15:12:37;37.32;31.71;52.73;;
40103;Laerm;25814;48.550;9.108;2022-12-18T15:15:05;36.11;30.90;55.72;;
40103;Laerm;25814;48.550;9.108;2022-12-18T15:18:01;33.62;30.25;53.39;;
40103;Laerm;25814;48.550;9.108;2022-12-18T15:20:27;37.26;30.51;57.10;;
40103;Laerm;25814;48.550;9.108;2022-12-18T15:22:53;35.10;30.92;43.77;;
40103;Laerm;25814;48.550;9.108;2022-12-18T15:25:37;42.72;30.86;72.90;;
40103;Laerm;25814;48.550;9.108;2022-12-18T15:28:22;33.46;31.00;40.91;;
40103;Laerm;25814;48.550;9.108;2022-12-18T15:33:41;37.78;32.04;57.76;;
40103;Laerm;25814;48.550;9.108;2022-12-18T15:36:15;34.05;30.54;55.91;;
40103;Laerm;25814;48.550;9.108;2022-12-18T15:38:47;33.58;30.30;46.71;;
40103;Laerm;25814;48.550;9.108;2022-12-18T15:41:16;42.69;31.53;57.65;;
40103;Laerm;25814;48.550;9.108;2022-12-18T15:43:42;34.30;30.91;42.67;;
40103;Laerm;25814;48.550;9.108;2022-12-18T15:46:14;32.91;30.43;45.36;;
40103;Laerm;25814;48.550;9.108;2022-12-18T15:49:03;34.96;30.16;55.97;;
40103;Laerm;25814;48.550;9.108;2022-12-18T15:51:33;34.56;31.41;47.23;;
40103;Laerm;25814;48.550;9.108;2022-12-18T15:54:04;38.91;31.07;59.80;;
40103;Laerm;25814;48.550;9.108;2022-12-18T15:56:32;39.50;31.71;63.28;;